Private Wetterstation Sandau
Wetterdaten: Donnerstag, 31.05.2012
Datum Zeit Temp. A. Feuchte A. Luftdruck Regen Wind Richtung Richtung Taupunkt Windchill
31.05.2012 00:01 13,8 C 61 % 1018,7 hPa 0,0 l/m 3,6 km/h (1 Bft) NW 315 6,4 C 13,8 C
31.05.2012 00:06 13,8 C 61 % 1018,5 hPa 0,0 l/m 2,9 km/h (1 Bft) W 270 6,4 C 13,8 C
31.05.2012 00:11 13,8 C 61 % 1018,5 hPa 0,0 l/m 1,8 km/h (1 Bft) W 270 6,4 C 13,8 C
31.05.2012 00:16 13,6 C 61 % 1018,5 hPa 0,0 l/m 3,2 km/h (1 Bft) W-NW 292 6,2 C 13,6 C
31.05.2012 00:21 13,6 C 61 % 1018,6 hPa 0,0 l/m 0,0 km/h (0 Bft) W-NW 292 6,2 C 13,6 C
31.05.2012 00:26 13,6 C 61 % 1018,5 hPa 0,0 l/m 1,4 km/h (1 Bft) W-NW 292 6,2 C 13,6 C
31.05.2012 00:31 13,6 C 62 % 1018,5 hPa 0,0 l/m 0,0 km/h (0 Bft) W-NW 292 6,5 C 13,6 C
31.05.2012 00:36 13,6 C 62 % 1018,6 hPa 0,0 l/m 1,1 km/h (1 Bft) W 270 6,5 C 13,6 C
31.05.2012 00:41 13,7 C 62 % 1018,6 hPa 0,0 l/m 0,0 km/h (0 Bft) W 270 6,6 C 13,7 C
31.05.2012 00:46 13,8 C 62 % 1018,6 hPa 0,0 l/m 0,0 km/h (0 Bft) W 270 6,6 C 13,8 C
31.05.2012 00:51 13,8 C 62 % 1018,7 hPa 0,0 l/m 0,0 km/h (0 Bft) W 270 6,6 C 13,8 C
31.05.2012 00:56 13,8 C 62 % 1018,5 hPa 0,0 l/m 0,0 km/h (0 Bft) W-NW 292 6,6 C 13,8 C
31.05.2012 01:01 13,8 C 62 % 1018,5 hPa 0,0 l/m 3,6 km/h (1 Bft) W-SW 247 6,6 C 13,8 C
31.05.2012 01:06 13,8 C 62 % 1018,5 hPa 0,0 l/m 0,0 km/h (0 Bft) W-SW 247 6,6 C 13,8 C
31.05.2012 01:11 13,8 C 62 % 1018,6 hPa 0,0 l/m 0,0 km/h (0 Bft) W 270 6,6 C 13,8 C
31.05.2012 01:16 13,8 C 62 % 1018,6 hPa 0,0 l/m 0,0 km/h (0 Bft) W 270 6,6 C 13,8 C
31.05.2012 01:21 13,8 C 62 % 1018,6 hPa 0,0 l/m 0,0 km/h (0 Bft) W-NW 292 6,6 C 13,8 C
31.05.2012 01:26 13,8 C 62 % 1018,6 hPa 0,0 l/m 2,9 km/h (1 Bft) W 270 6,6 C 13,8 C
31.05.2012 01:31 13,8 C 62 % 1018,6 hPa 0,0 l/m 1,8 km/h (1 Bft) W-SW 247 6,6 C 13,8 C
31.05.2012 01:36 13,6 C 62 % 1018,8 hPa 0,0 l/m 4,0 km/h (1 Bft) W-NW 292 6,5 C 13,6 C
31.05.2012 01:41 13,5 C 62 % 1018,7 hPa 0,0 l/m 3,2 km/h (1 Bft) W-NW 292 6,4 C 13,5 C
31.05.2012 01:46 13,5 C 62 % 1018,7 hPa 0,0 l/m 3,2 km/h (1 Bft) W-NW 292 6,4 C 13,5 C
31.05.2012 01:51 13,4 C 62 % 1018,6 hPa 0,0 l/m 0,0 km/h (0 Bft) W 270 6,3 C 13,4 C
31.05.2012 01:56 13,4 C 62 % 1018,6 hPa 0,0 l/m 1,8 km/h (1 Bft) NW 315 6,3 C 13,4 C
31.05.2012 02:01 13,4 C 63 % 1018,4 hPa 0,0 l/m 0,0 km/h (0 Bft) W-NW 292 6,5 C 13,4 C
31.05.2012 02:06 13,4 C 63 % 1018,5 hPa 0,0 l/m 1,1 km/h (1 Bft) NW 315 6,5 C 13,4 C
31.05.2012 02:11 13,4 C 63 % 1018,5 hPa 0,0 l/m 0,0 km/h (0 Bft) W-NW 292 6,5 C 13,4 C
31.05.2012 02:16 13,3 C 63 % 1018,5 hPa 0,0 l/m 2,5 km/h (1 Bft) W-NW 292 6,4 C 13,3 C
31.05.2012 02:21 13,3 C 63 % 1018,5 hPa 0,0 l/m 0,0 km/h (0 Bft) NW 315 6,4 C 13,3 C
31.05.2012 02:26 13,3 C 63 % 1018,3 hPa 0,0 l/m 0,0 km/h (0 Bft) W-NW 292 6,4 C 13,3 C
31.05.2012 02:31 13,3 C 63 % 1018,4 hPa 0,0 l/m 0,0 km/h (0 Bft) W 270 6,4 C 13,3 C
31.05.2012 02:36 13,3 C 63 % 1018,5 hPa 0,0 l/m 0,0 km/h (0 Bft) W-NW 292 6,4 C 13,3 C
31.05.2012 02:41 13,3 C 64 % 1018,5 hPa 0,0 l/m 0,0 km/h (0 Bft) NW 315 6,6 C 13,3 C
31.05.2012 02:46 13,1 C 64 % 1018,3 hPa 0,0 l/m 0,0 km/h (0 Bft) NW 315 6,4 C 13,1 C
31.05.2012 02:51 13,1 C 65 % 1018,3 hPa 0,0 l/m 0,0 km/h (0 Bft) NW 315 6,7 C 13,1 C
31.05.2012 02:56 13,1 C 65 % 1018,2 hPa 0,0 l/m 0,0 km/h (0 Bft) NW 315 6,7 C 13,1 C
31.05.2012 03:01 13,1 C 65 % 1018,2 hPa 0,0 l/m 0,0 km/h (0 Bft) NW 315 6,7 C 13,1 C
31.05.2012 03:06 13,1 C 65 % 1018,4 hPa 0,0 l/m 0,0 km/h (0 Bft) NW 315 6,7 C 13,1 C
31.05.2012 03:11 13,1 C 65 % 1018,2 hPa 0,0 l/m 0,0 km/h (0 Bft) NW 315 6,7 C 13,1 C
31.05.2012 03:16 13,1 C 65 % 1018,2 hPa 0,0 l/m 0,0 km/h (0 Bft) NW 315 6,7 C 13,1 C
31.05.2012 03:21 13,1 C 66 % 1018,1 hPa 0,0 l/m 0,0 km/h (0 Bft) NW 315 6,9 C 13,1 C
31.05.2012 03:26 13,0 C 66 % 1018,2 hPa 0,0 l/m 0,0 km/h (0 Bft) W-NW 292 6,8 C 13,0 C
31.05.2012 03:31 13,1 C 66 % 1018,1 hPa 0,0 l/m 0,0 km/h (0 Bft) W-NW 292 6,9 C 13,1 C
31.05.2012 03:36 13,1 C 66 % 1018,2 hPa 0,0 l/m 0,0 km/h (0 Bft) W-NW 292 6,9 C 13,1 C
31.05.2012 03:41 13,2 C 65 % 1018,0 hPa 0,0 l/m 0,0 km/h (0 Bft) W 270 6,8 C 13,2 C
31.05.2012 03:46 13,1 C 65 % 1018,0 hPa 0,0 l/m 0,0 km/h (0 Bft) W-NW 292 6,7 C 13,1 C
31.05.2012 03:51 13,1 C 66 % 1017,9 hPa 0,0 l/m 0,0 km/h (0 Bft) W-NW 292 6,9 C 13,1 C
31.05.2012 03:56 13,1 C 66 % 1017,8 hPa 0,0 l/m 1,4 km/h (1 Bft) NW 315 6,9 C 13,1 C
31.05.2012 04:01 13,0 C 66 % 1017,9 hPa 0,0 l/m 0,0 km/h (0 Bft) W-NW 292 6,8 C 13,0 C
31.05.2012 04:06 13,0 C 66 % 1018,0 hPa 0,0 l/m 0,0 km/h (0 Bft) W-NW 292 6,8 C 13,0 C
31.05.2012 04:11 13,1 C 66 % 1017,9 hPa 0,0 l/m 2,5 km/h (1 Bft) NW 315 6,9 C 13,1 C
31.05.2012 04:16 13,1 C 66 % 1017,8 hPa 0,0 l/m 1,1 km/h (1 Bft) W-NW 292 6,9 C 13,1 C
31.05.2012 04:21 13,1 C 66 % 1017,9 hPa 0,0 l/m 0,0 km/h (0 Bft) W-NW 292 6,9 C 13,1 C
31.05.2012 04:26 13,1 C 66 % 1017,8 hPa 0,0 l/m 0,0 km/h (0 Bft) W-NW 292 6,9 C 13,1 C
31.05.2012 04:31 12,9 C 66 % 1018,0 hPa 0,0 l/m 1,1 km/h (1 Bft) W-NW 292 6,7 C 12,9 C
31.05.2012 04:36 12,9 C 66 % 1018,1 hPa 0,0 l/m 0,0 km/h (0 Bft) W 270 6,7 C 12,9 C
31.05.2012 04:41 12,9 C 66 % 1018,1 hPa 0,0 l/m 2,2 km/h (1 Bft) W-NW 292 6,7 C 12,9 C
31.05.2012 04:46 12,8 C 66 % 1018,0 hPa 0,0 l/m 2,2 km/h (1 Bft) W 270 6,6 C 12,8 C
31.05.2012 04:51 12,8 C 66 % 1018,1 hPa 0,0 l/m 0,0 km/h (0 Bft) W 270 6,6 C 12,8 C
31.05.2012 04:56 12,8 C 67 % 1018,2 hPa 0,0 l/m 0,0 km/h (0 Bft) NW 315 6,8 C 12,8 C
31.05.2012 05:01 12,8 C 67 % 1018,1 hPa 0,0 l/m 0,0 km/h (0 Bft) NW 315 6,8 C 12,8 C
31.05.2012 05:06 12,7 C 67 % 1018,2 hPa 0,0 l/m 1,1 km/h (1 Bft) NW 315 6,7 C 12,7 C
31.05.2012 05:11 12,6 C 67 % 1018,1 hPa 0,0 l/m 1,4 km/h (1 Bft) N-NW 337 6,6 C 12,6 C
31.05.2012 05:16 12,5 C 68 % 1018,2 hPa 0,0 l/m 0,0 km/h (0 Bft) W-NW 292 6,8 C 12,5 C
31.05.2012 05:21 12,6 C 68 % 1018,2 hPa 0,0 l/m 0,0 km/h (0 Bft) N-NW 337 6,9 C 12,6 C
31.05.2012 05:26 12,6 C 68 % 1018,1 hPa 0,0 l/m 1,4 km/h (1 Bft) N-NW 337 6,9 C 12,6 C
31.05.2012 05:31 12,6 C 68 % 1018,1 hPa 0,0 l/m 4,0 km/h (1 Bft) O-NO 67 6,9 C 12,6 C
31.05.2012 05:36 12,6 C 67 % 1018,1 hPa 0,0 l/m 0,0 km/h (0 Bft) O-NO 67 6,6 C 12,6 C
31.05.2012 05:41 12,5 C 67 % 1018,3 hPa 0,0 l/m 2,2 km/h (1 Bft) NO 45 6,5 C 12,5 C
31.05.2012 05:46 12,4 C 66 % 1018,3 hPa 0,0 l/m 1,1 km/h (1 Bft) O-NO 67 6,2 C 12,4 C
31.05.2012 05:51 12,3 C 66 % 1018,3 hPa 0,0 l/m 3,2 km/h (1 Bft) NO 45 6,1 C 12,3 C
31.05.2012 05:56 12,3 C 66 % 1018,4 hPa 0,0 l/m 0,0 km/h (0 Bft) NO 45 6,1 C 12,3 C
31.05.2012 06:01 12,2 C 66 % 1018,3 hPa 0,0 l/m 0,0 km/h (0 Bft) N 360 6,0 C 12,2 C
31.05.2012 06:06 12,2 C 66 % 1018,5 hPa 0,0 l/m 1,1 km/h (1 Bft) N-NO 22 6,0 C 12,2 C
31.05.2012 06:11 12,2 C 66 % 1018,5 hPa 0,0 l/m 0,0 km/h (0 Bft) NO 45 6,0 C 12,2 C
31.05.2012 06:16 12,1 C 66 % 1018,5 hPa 0,0 l/m 0,0 km/h (0 Bft) N-NW 337 5,9 C 12,1 C
31.05.2012 06:21 12,1 C 66 % 1018,5 hPa 0,0 l/m 1,4 km/h (1 Bft) N 360 5,9 C 12,1 C
31.05.2012 06:26 12,2 C 66 % 1018,4 hPa 0,0 l/m 0,0 km/h (0 Bft) N-NO 22 6,0 C 12,2 C
31.05.2012 06:31 12,2 C 66 % 1018,4 hPa 0,0 l/m 4,3 km/h (1 Bft) NO 45 6,0 C 12,2 C
31.05.2012 06:36 12,1 C 66 % 1018,3 hPa 0,0 l/m 0,0 km/h (0 Bft) N-NW 337 5,9 C 12,1 C
31.05.2012 06:41 12,1 C 66 % 1018,5 hPa 0,0 l/m 0,0 km/h (0 Bft) NW 315 5,9 C 12,1 C
31.05.2012 06:46 12,3 C 65 % 1018,4 hPa 0,0 l/m 0,0 km/h (0 Bft) N-NW 337 5,9 C 12,3 C
31.05.2012 06:51 12,3 C 65 % 1018,2 hPa 0,0 l/m 0,0 km/h (0 Bft) N-NO 22 5,9 C 12,3 C
31.05.2012 06:56 12,3 C 65 % 1018,4 hPa 0,0 l/m 0,0 km/h (0 Bft) NO 45 5,9 C 12,3 C
31.05.2012 07:01 12,2 C 65 % 1018,2 hPa 0,0 l/m 0,0 km/h (0 Bft) N-NO 22 5,8 C 12,2 C
31.05.2012 07:06 12,3 C 65 % 1018,2 hPa 0,0 l/m 1,1 km/h (1 Bft) N-NO 22 5,9 C 12,3 C
31.05.2012 07:11 12,3 C 65 % 1018,5 hPa 0,0 l/m 0,0 km/h (0 Bft) N-NO 22 5,9 C 12,3 C
31.05.2012 07:16 12,3 C 65 % 1018,3 hPa 0,0 l/m 0,0 km/h (0 Bft) NO 45 5,9 C 12,3 C
31.05.2012 07:21 12,3 C 65 % 1018,3 hPa 0,0 l/m 0,0 km/h (0 Bft) N-NO 22 5,9 C 12,3 C
31.05.2012 07:26 12,3 C 65 % 1018,5 hPa 0,0 l/m 2,5 km/h (1 Bft) N-NO 22 5,9 C 12,3 C
31.05.2012 07:31 12,3 C 65 % 1018,3 hPa 0,0 l/m 0,0 km/h (0 Bft) N 360 5,9 C 12,3 C
31.05.2012 07:36 12,4 C 65 % 1018,2 hPa 0,0 l/m 0,0 km/h (0 Bft) N-NO 22 6,0 C 12,4 C
31.05.2012 07:41 12,5 C 64 % 1018,3 hPa 0,0 l/m 0,0 km/h (0 Bft) NO 45 5,9 C 12,5 C
31.05.2012 07:46 12,6 C 64 % 1018,3 hPa 0,0 l/m 0,0 km/h (0 Bft) N 360 6,0 C 12,6 C
31.05.2012 07:51 12,7 C 64 % 1018,1 hPa 0,0 l/m 0,0 km/h (0 Bft) N-NO 22 6,1 C 12,7 C
31.05.2012 07:56 12,8 C 64 % 1018,2 hPa 0,0 l/m 0,0 km/h (0 Bft) NO 45 6,2 C 12,8 C
31.05.2012 08:01 12,7 C 64 % 1018,1 hPa 0,0 l/m 2,9 km/h (1 Bft) N-NO 22 6,1 C 12,7 C
31.05.2012 08:06 12,6 C 63 % 1018,1 hPa 0,0 l/m 1,8 km/h (1 Bft) N-NO 22 5,7 C 12,6 C
31.05.2012 08:11 12,6 C 64 % 1018,3 hPa 0,0 l/m 2,2 km/h (1 Bft) NO 45 6,0 C 12,6 C
31.05.2012 08:16 12,5 C 63 % 1018,3 hPa 0,0 l/m 4,0 km/h (1 Bft) N-NO 22 5,7 C 12,5 C
31.05.2012 08:21 12,4 C 64 % 1018,1 hPa 0,0 l/m 5,4 km/h (1 Bft) NO 45 5,8 C 12,4 C
31.05.2012 08:26 12,4 C 64 % 1018,4 hPa 0,0 l/m 0,0 km/h (0 Bft) N 360 5,8 C 12,4 C
31.05.2012 08:31 12,4 C 65 % 1018,3 hPa 0,0 l/m 1,4 km/h (1 Bft) NW 315 6,0 C 12,4 C
31.05.2012 08:36 12,5 C 64 % 1018,3 hPa 0,0 l/m 0,0 km/h (0 Bft) N-NO 22 5,9 C 12,5 C
31.05.2012 08:41 12,5 C 64 % 1018,3 hPa 0,0 l/m 2,9 km/h (1 Bft) N 360 5,9 C 12,5 C
31.05.2012 08:46 12,6 C 64 % 1018,1 hPa 0,0 l/m 0,0 km/h (0 Bft) N-NW 337 6,0 C 12,6 C
31.05.2012 08:51 12,7 C 64 % 1018,2 hPa 0,0 l/m 0,0 km/h (0 Bft) N 360 6,1 C 12,7 C
31.05.2012 08:56 12,8 C 64 % 1018,3 hPa 0,0 l/m 2,2 km/h (1 Bft) NO 45 6,2 C 12,8 C
31.05.2012 09:01 12,9 C 63 % 1018,2 hPa 0,0 l/m 3,6 km/h (1 Bft) N-NO 22 6,0 C 12,9 C
31.05.2012 09:06 12,9 C 63 % 1018,2 hPa 0,0 l/m 0,0 km/h (0 Bft) NO 45 6,0 C 12,9 C
31.05.2012 09:11 12,9 C 63 % 1018,2 hPa 0,0 l/m 2,2 km/h (1 Bft) NO 45 6,0 C 12,9 C
31.05.2012 09:16 13,0 C 63 % 1018,2 hPa 0,0 l/m 1,8 km/h (1 Bft) NO 45 6,1 C 13,0 C
31.05.2012 09:21 13,1 C 63 % 1018,2 hPa 0,0 l/m 0,0 km/h (0 Bft) NW 315 6,2 C 13,1 C
31.05.2012 09:26 13,3 C 63 % 1018,2 hPa 0,0 l/m 1,1 km/h (1 Bft) NO 45 6,4 C 13,3 C
31.05.2012 09:31 13,6 C 62 % 1018,2 hPa 0,0 l/m 3,2 km/h (1 Bft) O-NO 67 6,5 C 13,6 C
31.05.2012 09:36 13,6 C 62 % 1018,2 hPa 0,0 l/m 5,4 km/h (1 Bft) W-NW 292 6,5 C 13,6 C
31.05.2012 09:41 13,9 C 62 % 1018,1 hPa 0,0 l/m 0,0 km/h (0 Bft) W 270 6,7 C 13,9 C
31.05.2012 09:46 14,1 C 61 % 1018,0 hPa 0,0 l/m 0,0 km/h (0 Bft) N 360 6,7 C 14,1 C
31.05.2012 09:51 14,3 C 61 % 1018,0 hPa 0,0 l/m 2,5 km/h (1 Bft) W-SW 247 6,9 C 14,3 C
31.05.2012 09:56 14,5 C 61 % 1018,0 hPa 0,0 l/m 0,0 km/h (0 Bft) NW 315 7,1 C 14,5 C
31.05.2012 10:01 14,6 C 60 % 1017,9 hPa 0,0 l/m 0,0 km/h (0 Bft) SO 135 6,9 C 14,6 C
31.05.2012 10:06 14,7 C 60 % 1017,9 hPa 0,0 l/m 0,0 km/h (0 Bft) SO 135 7,0 C 14,7 C
31.05.2012 10:11 14,9 C 60 % 1017,9 hPa 0,0 l/m 5,0 km/h (1 Bft) NW 315 7,2 C 14,9 C
31.05.2012 10:16 14,9 C 59 % 1018,1 hPa 0,0 l/m 4,0 km/h (1 Bft) W 270 7,0 C 14,9 C
31.05.2012 10:21 14,9 C 59 % 1018,1 hPa 0,0 l/m 4,7 km/h (1 Bft) W-SW 247 7,0 C 14,9 C
31.05.2012 10:26 15,1 C 59 % 1018,0 hPa 0,0 l/m 0,0 km/h (0 Bft) W-SW 247 7,1 C 15,1 C
31.05.2012 10:31 15,3 C 59 % 1017,9 hPa 0,0 l/m 2,2 km/h (1 Bft) W-SW 247 7,3 C 15,3 C
31.05.2012 10:36 15,4 C 59 % 1017,9 hPa 0,0 l/m 5,8 km/h (2 Bft) W-NW 292 7,4 C 15,4 C
31.05.2012 10:41 15,4 C 59 % 1017,7 hPa 0,0 l/m 3,6 km/h (1 Bft) W-SW 247 7,4 C 15,4 C
31.05.2012 10:46 15,8 C 59 % 1017,7 hPa 0,0 l/m 6,1 km/h (2 Bft) W-SW 247 7,8 C 15,8 C
31.05.2012 10:51 16,1 C 58 % 1017,7 hPa 0,0 l/m 0,0 km/h (0 Bft) NW 315 7,8 C 16,1 C
31.05.2012 10:56 16,2 C 57 % 1017,8 hPa 0,0 l/m 6,5 km/h (2 Bft) W-NW 292 7,7 C 16,2 C
31.05.2012 11:01 16,2 C 57 % 1017,8 hPa 0,0 l/m 4,0 km/h (1 Bft) W-NW 292 7,7 C 16,2 C
31.05.2012 11:06 16,4 C 57 % 1017,7 hPa 0,0 l/m 2,2 km/h (1 Bft) W-SW 247 7,9 C 16,4 C
31.05.2012 11:11 16,5 C 57 % 1017,6 hPa 0,0 l/m 1,1 km/h (1 Bft) W 270 8,0 C 16,5 C
31.05.2012 11:16 16,6 C 56 % 1017,3 hPa 0,0 l/m 6,5 km/h (2 Bft) SW 225 7,8 C 16,6 C
31.05.2012 11:21 16,9 C 56 % 1017,4 hPa 0,0 l/m 4,7 km/h (1 Bft) S-SW 202 8,1 C 16,9 C
31.05.2012 11:26 17,1 C 56 % 1017,4 hPa 0,0 l/m 4,3 km/h (1 Bft) NW 315 8,3 C 17,1 C
31.05.2012 11:31 17,3 C 56 % 1017,5 hPa 0,0 l/m 6,1 km/h (2 Bft) S-SW 202 8,4 C 17,3 C
31.05.2012 11:36 17,5 C 55 % 1017,5 hPa 0,0 l/m 2,2 km/h (1 Bft) W-SW 247 8,4 C 17,5 C
31.05.2012 11:41 17,6 C 55 % 1017,5 hPa 0,0 l/m 12,2 km/h (2 Bft) SW 225 8,5 C 17,6 C
31.05.2012 11:46 17,9 C 55 % 1017,4 hPa 0,0 l/m 6,5 km/h (2 Bft) S-SW 202 8,7 C 17,9 C
31.05.2012 11:51 18,2 C 54 % 1017,4 hPa 0,0 l/m 4,3 km/h (1 Bft) W-NW 292 8,7 C 18,2 C
31.05.2012 11:56 18,4 C 54 % 1017,5 hPa 0,0 l/m 2,5 km/h (1 Bft) N-NW 337 8,9 C 18,4 C
31.05.2012 12:01 18,6 C 53 % 1017,5 hPa 0,0 l/m 4,7 km/h (1 Bft) W-SW 247 8,8 C 18,6 C
31.05.2012 12:06 18,8 C 53 % 1017,3 hPa 0,0 l/m 7,6 km/h (2 Bft) S-SW 202 9,0 C 18,8 C
31.05.2012 12:11 18,8 C 53 % 1017,3 hPa 0,0 l/m 3,6 km/h (1 Bft) S-SO 157 9,0 C 18,8 C
31.05.2012 12:16 18,6 C 53 % 1017,4 hPa 0,0 l/m 8,3 km/h (2 Bft) W 270 8,8 C 18,6 C
31.05.2012 12:21 18,4 C 53 % 1017,4 hPa 0,0 l/m 7,6 km/h (2 Bft) S 180 8,6 C 18,4 C
31.05.2012 12:26 18,2 C 53 % 1017,4 hPa 0,0 l/m 2,9 km/h (1 Bft) W-SW 247 8,5 C 18,2 C
31.05.2012 12:31 18,1 C 54 % 1017,4 hPa 0,0 l/m 5,0 km/h (1 Bft) SW 225 8,6 C 18,1 C
31.05.2012 12:36 18,1 C 54 % 1017,3 hPa 0,0 l/m 3,6 km/h (1 Bft) SW 225 8,6 C 18,1 C
31.05.2012 12:41 18,1 C 55 % 1017,2 hPa 0,0 l/m 2,5 km/h (1 Bft) S 180 8,9 C 18,1 C
31.05.2012 12:46 18,4 C 54 % 1017,1 hPa 0,0 l/m 8,6 km/h (2 Bft) S-SO 157 8,9 C 18,4 C
31.05.2012 12:51 18,5 C 54 % 1017,1 hPa 0,0 l/m 4,7 km/h (1 Bft) S-SW 202 9,0 C 18,5 C
31.05.2012 12:56 18,7 C 53 % 1017,1 hPa 0,0 l/m 9,0 km/h (2 Bft) SW 225 8,9 C 18,7 C
31.05.2012 13:01 18,8 C 54 % 1017,1 hPa 0,0 l/m 5,4 km/h (1 Bft) W 270 9,3 C 18,8 C
31.05.2012 13:06 18,9 C 53 % 1017,1 hPa 0,0 l/m 4,0 km/h (1 Bft) W-NW 292 9,1 C 18,9 C
31.05.2012 13:11 18,9 C 53 % 1017,0 hPa 0,0 l/m 4,3 km/h (1 Bft) W-NW 292 9,1 C 18,9 C
31.05.2012 13:16 18,9 C 53 % 1017,0 hPa 0,0 l/m 5,8 km/h (2 Bft) S-SW 202 9,1 C 18,9 C
31.05.2012 13:21 18,9 C 53 % 1017,1 hPa 0,0 l/m 13,0 km/h (3 Bft) W-SW 247 9,1 C 18,9 C
31.05.2012 13:26 18,8 C 53 % 1017,1 hPa 0,0 l/m 4,3 km/h (1 Bft) SW 225 9,0 C 18,8 C
31.05.2012 13:31 18,6 C 53 % 1017,1 hPa 0,0 l/m 3,2 km/h (1 Bft) S-SO 157 8,8 C 18,6 C
31.05.2012 13:36 18,4 C 54 % 1017,0 hPa 0,0 l/m 5,4 km/h (1 Bft) W 270 8,9 C 18,4 C
31.05.2012 13:41 18,8 C 55 % 1017,0 hPa 0,0 l/m 11,9 km/h (2 Bft) SW 225 9,6 C 18,8 C
31.05.2012 13:46 18,9 C 54 % 1017,0 hPa 0,0 l/m 9,4 km/h (2 Bft) S 180 9,4 C 18,9 C
31.05.2012 13:51 19,0 C 54 % 1016,8 hPa 0,0 l/m 7,9 km/h (2 Bft) W 270 9,5 C 19,0 C
31.05.2012 13:56 19,1 C 55 % 1017,0 hPa 0,0 l/m 3,2 km/h (1 Bft) W-SW 247 9,8 C 19,1 C
31.05.2012 14:01 19,2 C 55 % 1016,9 hPa 0,0 l/m 4,0 km/h (1 Bft) W-NW 292 9,9 C 19,2 C
31.05.2012 14:06 19,0 C 55 % 1016,9 hPa 0,0 l/m 3,6 km/h (1 Bft) S-SW 202 9,8 C 19,0 C
31.05.2012 14:11 18,8 C 55 % 1016,9 hPa 0,0 l/m 11,9 km/h (2 Bft) W 270 9,6 C 18,8 C
31.05.2012 14:16 18,7 C 56 % 1016,8 hPa 0,0 l/m 7,9 km/h (2 Bft) W-NW 292 9,7 C 18,7 C
31.05.2012 14:21 18,6 C 57 % 1016,7 hPa 0,0 l/m 4,0 km/h (1 Bft) W 270 9,9 C 18,6 C
31.05.2012 14:26 18,6 C 57 % 1016,8 hPa 0,0 l/m 6,5 km/h (2 Bft) W-SW 247 9,9 C 18,6 C
31.05.2012 14:31 18,7 C 57 % 1016,7 hPa 0,0 l/m 7,6 km/h (2 Bft) W 270 10,0 C 18,7 C
31.05.2012 14:36 18,8 C 57 % 1016,6 hPa 0,0 l/m 7,2 km/h (2 Bft) W-SW 247 10,1 C 18,8 C
31.05.2012 14:41 18,8 C 57 % 1016,4 hPa 0,0 l/m 8,3 km/h (2 Bft) W-SW 247 10,1 C 18,8 C
31.05.2012 14:46 18,7 C 57 % 1016,3 hPa 0,0 l/m 9,0 km/h (2 Bft) NW 315 10,0 C 18,7 C
31.05.2012 14:51 18,5 C 57 % 1016,3 hPa 0,0 l/m 5,8 km/h (2 Bft) W 270 9,8 C 18,5 C
31.05.2012 14:56 18,3 C 58 % 1016,2 hPa 0,0 l/m 7,9 km/h (2 Bft) W 270 9,9 C 18,3 C
31.05.2012 15:01 18,3 C 59 % 1016,1 hPa 0,0 l/m 9,7 km/h (2 Bft) W-NW 292 10,1 C 18,3 C
31.05.2012 15:06 18,3 C 61 % 1016,0 hPa 0,0 l/m 5,0 km/h (1 Bft) W-SW 247 10,6 C 18,3 C
31.05.2012 15:11 18,2 C 62 % 1016,0 hPa 0,0 l/m 10,1 km/h (2 Bft) W-NW 292 10,8 C 18,2 C
31.05.2012 15:16 18,1 C 62 % 1015,8 hPa 0,0 l/m 3,2 km/h (1 Bft) W 270 10,7 C 18,1 C
31.05.2012 15:21 17,9 C 64 % 1015,8 hPa 0,0 l/m 13,0 km/h (3 Bft) W-SW 247 11,0 C 17,9 C
31.05.2012 15:26 18,1 C 64 % 1015,7 hPa 0,0 l/m 5,0 km/h (1 Bft) W 270 11,2 C 18,1 C
31.05.2012 15:31 18,1 C 65 % 1015,6 hPa 0,0 l/m 6,8 km/h (2 Bft) S-SW 202 11,4 C 18,1 C
31.05.2012 15:36 18,1 C 65 % 1015,4 hPa 0,0 l/m 6,1 km/h (2 Bft) W-SW 247 11,4 C 18,1 C
31.05.2012 15:41 18,1 C 65 % 1015,3 hPa 0,0 l/m 4,3 km/h (1 Bft) S 180 11,4 C 18,1 C
31.05.2012 15:46 17,9 C 65 % 1015,3 hPa 0,0 l/m 2,9 km/h (1 Bft) SW 225 11,2 C 17,9 C
31.05.2012 15:51 17,9 C 66 % 1015,2 hPa 0,0 l/m 13,0 km/h (3 Bft) S-SW 202 11,5 C 17,9 C
31.05.2012 15:56 18,1 C 66 % 1015,2 hPa 0,0 l/m 3,2 km/h (1 Bft) W 270 11,6 C 18,1 C
31.05.2012 16:01 18,1 C 66 % 1015,0 hPa 0,0 l/m 8,3 km/h (2 Bft) W-SW 247 11,6 C 18,1 C
31.05.2012 16:06 18,1 C 66 % 1014,9 hPa 0,0 l/m 9,4 km/h (2 Bft) W-SW 247 11,6 C 18,1 C
31.05.2012 16:11 18,1 C 67 % 1014,9 hPa 0,0 l/m 6,5 km/h (2 Bft) W-SW 247 11,9 C 18,1 C
31.05.2012 16:16 18,1 C 67 % 1014,8 hPa 0,0 l/m 10,4 km/h (2 Bft) S-SW 202 11,9 C 18,1 C
31.05.2012 16:21 18,1 C 67 % 1014,9 hPa 0,0 l/m 7,6 km/h (2 Bft) SW 225 11,9 C 18,1 C
31.05.2012 16:26 18,2 C 67 % 1014,7 hPa 0,0 l/m 6,8 km/h (2 Bft) S-SW 202 12,0 C 18,2 C
31.05.2012 16:31 18,1 C 68 % 1014,6 hPa 0,0 l/m 7,6 km/h (2 Bft) W-SW 247 12,1 C 18,1 C
31.05.2012 16:36 17,9 C 68 % 1014,6 hPa 0,0 l/m 7,9 km/h (2 Bft) SW 225 11,9 C 17,9 C
31.05.2012 16:41 17,9 C 69 % 1014,5 hPa 0,0 l/m 4,3 km/h (1 Bft) S-SW 202 12,1 C 17,9 C
31.05.2012 16:46 17,9 C 69 % 1014,4 hPa 0,0 l/m 8,3 km/h (2 Bft) S 180 12,1 C 17,9 C
31.05.2012 16:51 17,8 C 69 % 1014,3 hPa 0,0 l/m 2,5 km/h (1 Bft) W 270 12,0 C 17,8 C
31.05.2012 16:56 17,8 C 70 % 1014,3 hPa 0,0 l/m 2,9 km/h (1 Bft) W-SW 247 12,3 C 17,8 C
31.05.2012 17:01 17,6 C 70 % 1014,2 hPa 0,0 l/m 2,5 km/h (1 Bft) W-NW 292 12,1 C 17,6 C
31.05.2012 17:06 17,6 C 71 % 1014,2 hPa 0,0 l/m 5,8 km/h (2 Bft) W-SW 247 12,3 C 17,6 C
31.05.2012 17:11 17,4 C 71 % 1014,2 hPa 0,0 l/m 6,1 km/h (2 Bft) W 270 12,1 C 17,4 C
31.05.2012 17:16 17,4 C 72 % 1013,9 hPa 0,0 l/m 5,4 km/h (1 Bft) S-SW 202 12,3 C 17,4 C
31.05.2012 17:21 17,3 C 72 % 1013,9 hPa 0,0 l/m 3,6 km/h (1 Bft) SW 225 12,2 C 17,3 C
31.05.2012 17:26 17,3 C 72 % 1013,8 hPa 0,0 l/m 2,9 km/h (1 Bft) S-SW 202 12,2 C 17,3 C
31.05.2012 17:31 17,3 C 73 % 1013,8 hPa 0,0 l/m 3,6 km/h (1 Bft) W 270 12,4 C 17,3 C
31.05.2012 17:36 17,3 C 73 % 1013,6 hPa 0,0 l/m 4,0 km/h (1 Bft) S-SW 202 12,4 C 17,3 C
31.05.2012 17:41 17,3 C 73 % 1013,5 hPa 0,0 l/m 3,6 km/h (1 Bft) W-SW 247 12,4 C 17,3 C
31.05.2012 17:46 17,2 C 73 % 1013,5 hPa 0,0 l/m 6,5 km/h (2 Bft) S-SW 202 12,3 C 17,2 C
31.05.2012 17:51 17,2 C 74 % 1013,3 hPa 0,0 l/m 2,5 km/h (1 Bft) S 180 12,5 C 17,2 C
31.05.2012 17:56 17,2 C 74 % 1013,2 hPa 0,5 l/m 4,0 km/h (1 Bft) SW 225 12,5 C 17,2 C
31.05.2012 18:01 17,2 C 74 % 1013,1 hPa 0,0 l/m 2,5 km/h (1 Bft) S-SO 157 12,5 C 17,2 C
31.05.2012 18:06 17,2 C 75 % 1013,1 hPa 0,0 l/m 3,2 km/h (1 Bft) S 180 12,7 C 17,2 C
31.05.2012 18:11 17,1 C 75 % 1012,9 hPa 0,0 l/m 4,0 km/h (1 Bft) S-SW 202 12,6 C 17,1 C
31.05.2012 18:16 17,1 C 75 % 1012,9 hPa 0,0 l/m 4,0 km/h (1 Bft) S-SW 202 12,6 C 17,1 C
31.05.2012 18:21 17,1 C 75 % 1012,8 hPa 0,0 l/m 0,0 km/h (0 Bft) W-SW 247 12,6 C 17,1 C
31.05.2012 18:26 17,1 C 75 % 1012,7 hPa 0,0 l/m 1,8 km/h (1 Bft) S 180 12,6 C 17,1 C
31.05.2012 18:31 17,0 C 75 % 1012,7 hPa 0,0 l/m 4,7 km/h (1 Bft) S-SW 202 12,5 C 17,0 C
31.05.2012 18:36 16,9 C 75 % 1012,7 hPa 0,0 l/m 4,0 km/h (1 Bft) S-SW 202 12,4 C 16,9 C
31.05.2012 18:41 16,9 C 75 % 1012,6 hPa 0,0 l/m 4,0 km/h (1 Bft) S 180 12,4 C 16,9 C
31.05.2012 18:46 16,8 C 76 % 1012,5 hPa 0,0 l/m 6,1 km/h (2 Bft) S-SW 202 12,5 C 16,8 C
31.05.2012 18:51 16,7 C 76 % 1012,4 hPa 0,0 l/m 2,5 km/h (1 Bft) S-SW 202 12,4 C 16,7 C
31.05.2012 18:56 16,7 C 76 % 1012,3 hPa 0,0 l/m 0,0 km/h (0 Bft) S-SW 202 12,4 C 16,7 C
31.05.2012 19:01 16,6 C 77 % 1012,3 hPa 0,5 l/m 0,0 km/h (0 Bft) S-SW 202 12,5 C 16,6 C
31.05.2012 19:06 16,5 C 77 % 1012,1 hPa 0,0 l/m 3,6 km/h (1 Bft) S-SO 157 12,5 C 16,5 C
31.05.2012 19:11 16,4 C 77 % 1012,1 hPa 0,0 l/m 0,0 km/h (0 Bft) S 180 12,4 C 16,4 C
31.05.2012 19:16 16,4 C 77 % 1012,0 hPa 0,0 l/m 2,5 km/h (1 Bft) S 180 12,4 C 16,4 C
31.05.2012 19:21 16,4 C 77 % 1011,9 hPa 0,0 l/m 1,4 km/h (1 Bft) S-SO 157 12,4 C 16,4 C
31.05.2012 19:26 16,4 C 78 % 1011,8 hPa 0,0 l/m 1,1 km/h (1 Bft) S 180 12,6 C 16,4 C
31.05.2012 19:31 16,4 C 78 % 1011,7 hPa 0,5 l/m 0,0 km/h (0 Bft) S-SO 157 12,6 C 16,4 C
31.05.2012 19:36 16,3 C 79 % 1011,7 hPa 0,0 l/m 2,5 km/h (1 Bft) S 180 12,6 C 16,3 C
31.05.2012 19:41 16,3 C 79 % 1011,6 hPa 0,0 l/m 4,0 km/h (1 Bft) S 180 12,6 C 16,3 C
31.05.2012 19:46 16,3 C 79 % 1011,6 hPa 0,0 l/m 4,0 km/h (1 Bft) SO 135 12,6 C 16,3 C
31.05.2012 19:51 16,2 C 79 % 1011,2 hPa 0,0 l/m 3,6 km/h (1 Bft) S-SW 202 12,6 C 16,2 C
31.05.2012 19:56 16,1 C 79 % 1011,3 hPa 0,5 l/m 5,0 km/h (1 Bft) S-SO 157 12,5 C 16,1 C
31.05.2012 20:01 16,1 C 80 % 1011,1 hPa 0,0 l/m 2,5 km/h (1 Bft) SO 135 12,6 C 16,1 C
31.05.2012 20:06 16,0 C 80 % 1011,0 hPa 0,5 l/m 1,8 km/h (1 Bft) S-SO 157 12,5 C 16,0 C
31.05.2012 20:11 15,9 C 81 % 1010,9 hPa 0,0 l/m 1,8 km/h (1 Bft) S-SO 157 12,6 C 15,9 C
31.05.2012 20:16 15,9 C 81 % 1010,9 hPa 0,5 l/m 2,5 km/h (1 Bft) S-SO 157 12,6 C 15,9 C
31.05.2012 20:21 15,9 C 81 % 1010,9 hPa 0,5 l/m 4,0 km/h (1 Bft) S-SO 157 12,6 C 15,9 C
31.05.2012 20:26 15,8 C 81 % 1010,9 hPa 0,5 l/m 1,4 km/h (1 Bft) S-SO 157 12,5 C 15,8 C
31.05.2012 20:31 15,8 C 81 % 1010,8 hPa 2,6 l/m 3,6 km/h (1 Bft) SO 135 12,5 C 15,8 C
31.05.2012 20:36 15,6 C 82 % 1010,6 hPa 1,6 l/m 3,2 km/h (1 Bft) SO 135 12,5 C 15,6 C
31.05.2012 20:41 15,4 C 82 % 1010,6 hPa 0,0 l/m 0,0 km/h (0 Bft) S-SO 157 12,3 C 15,4 C
31.05.2012 20:46 15,3 C 83 % 1010,4 hPa 0,5 l/m 0,0 km/h (0 Bft) SO 135 12,4 C 15,3 C
31.05.2012 20:51 15,3 C 83 % 1010,2 hPa 0,0 l/m 4,3 km/h (1 Bft) S-SO 157 12,4 C 15,3 C
31.05.2012 20:56 15,3 C 83 % 1010,2 hPa 0,0 l/m 5,0 km/h (1 Bft) SO 135 12,4 C 15,3 C
31.05.2012 21:01 15,1 C 84 % 1010,1 hPa 0,5 l/m 4,0 km/h (1 Bft) SO 135 12,4 C 15,1 C
31.05.2012 21:06 15,1 C 83 % 1010,0 hPa 0,0 l/m 5,4 km/h (1 Bft) S-SO 157 12,2 C 15,1 C
31.05.2012 21:11 15,1 C 84 % 1009,9 hPa 0,0 l/m 3,6 km/h (1 Bft) S-SW 202 12,4 C 15,1 C
31.05.2012 21:16 15,1 C 84 % 1009,9 hPa 0,5 l/m 2,9 km/h (1 Bft) S-SO 157 12,4 C 15,1 C
31.05.2012 21:21 15,1 C 84 % 1009,6 hPa 0,0 l/m 2,5 km/h (1 Bft) S-SO 157 12,4 C 15,1 C
31.05.2012 21:26 15,1 C 84 % 1009,7 hPa 0,0 l/m 5,0 km/h (1 Bft) SO 135 12,4 C 15,1 C
31.05.2012 21:31 15,0 C 84 % 1009,7 hPa 0,0 l/m 4,3 km/h (1 Bft) O-SO 112 12,3 C 15,0 C
31.05.2012 21:36 15,0 C 85 % 1009,5 hPa 0,5 l/m 2,9 km/h (1 Bft) SO 135 12,5 C 15,0 C
31.05.2012 21:41 15,0 C 85 % 1009,5 hPa 0,0 l/m 3,6 km/h (1 Bft) S-SO 157 12,5 C 15,0 C
31.05.2012 21:46 15,1 C 85 % 1009,4 hPa 0,0 l/m 4,0 km/h (1 Bft) SO 135 12,6 C 15,1 C
31.05.2012 21:51 15,1 C 85 % 1009,4 hPa 0,5 l/m 2,9 km/h (1 Bft) S 180 12,6 C 15,1 C
31.05.2012 21:56 15,1 C 85 % 1009,3 hPa 0,0 l/m 2,5 km/h (1 Bft) S 180 12,6 C 15,1 C
31.05.2012 22:01 15,1 C 85 % 1009,2 hPa 0,5 l/m 3,2 km/h (1 Bft) S-SW 202 12,6 C 15,1 C
31.05.2012 22:06 15,1 C 85 % 1008,9 hPa 1,0 l/m 5,8 km/h (2 Bft) S-SO 157 12,6 C 15,1 C
31.05.2012 22:11 15,2 C 85 % 1008,7 hPa 0,5 l/m 4,3 km/h (1 Bft) S 180 12,7 C 15,2 C
31.05.2012 22:16 15,2 C 85 % 1008,6 hPa 0,5 l/m 0,0 km/h (0 Bft) S-SW 202 12,7 C 15,2 C
31.05.2012 22:21 15,1 C 85 % 1008,5 hPa 0,0 l/m 7,2 km/h (2 Bft) S 180 12,6 C 15,1 C
31.05.2012 22:26 15,1 C 86 % 1008,5 hPa 0,0 l/m 10,8 km/h (2 Bft) S 180 12,8 C 15,1 C
31.05.2012 22:31 15,1 C 86 % 1008,5 hPa 0,5 l/m 6,1 km/h (2 Bft) S-SO 157 12,8 C 15,1 C
31.05.2012 22:36 15,0 C 86 % 1008,3 hPa 0,5 l/m 5,8 km/h (2 Bft) S-SO 157 12,7 C 15,0 C
31.05.2012 22:41 15,0 C 86 % 1008,2 hPa 0,0 l/m 6,1 km/h (2 Bft) SW 225 12,7 C 15,0 C
31.05.2012 22:46 15,1 C 86 % 1008,2 hPa 0,0 l/m 11,2 km/h (2 Bft) S-SO 157 12,8 C 15,1 C
31.05.2012 22:51 15,1 C 86 % 1008,2 hPa 0,0 l/m 11,2 km/h (2 Bft) W-SW 247 12,8 C 15,1 C
31.05.2012 22:56 15,1 C 86 % 1008,1 hPa 0,5 l/m 10,4 km/h (2 Bft) W-SW 247 12,8 C 15,1 C
31.05.2012 23:01 15,1 C 86 % 1008,1 hPa 0,0 l/m 7,6 km/h (2 Bft) W-SW 247 12,8 C 15,1 C
31.05.2012 23:06 15,1 C 86 % 1008,1 hPa 0,0 l/m 11,2 km/h (2 Bft) SW 225 12,8 C 15,1 C
31.05.2012 23:11 15,1 C 86 % 1008,0 hPa 0,0 l/m 7,6 km/h (2 Bft) S-SW 202 12,8 C 15,1 C
31.05.2012 23:16 14,9 C 86 % 1008,1 hPa 0,0 l/m 10,4 km/h (2 Bft) W-SW 247 12,6 C 14,9 C
31.05.2012 23:21 14,9 C 86 % 1008,0 hPa 0,0 l/m 7,9 km/h (2 Bft) SW 225 12,6 C 14,9 C
31.05.2012 23:26 14,9 C 86 % 1007,9 hPa 0,0 l/m 9,7 km/h (2 Bft) W-SW 247 12,6 C 14,9 C
31.05.2012 23:31 14,9 C 85 % 1007,6 hPa 0,5 l/m 6,5 km/h (2 Bft) W-SW 247 12,4 C 14,9 C
31.05.2012 23:36 14,9 C 85 % 1007,5 hPa 0,0 l/m 11,9 km/h (2 Bft) W-SW 247 12,4 C 14,9 C
31.05.2012 23:41 14,9 C 85 % 1007,5 hPa 0,0 l/m 13,0 km/h (3 Bft) W-SW 247 12,4 C 14,9 C
31.05.2012 23:46 14,9 C 85 % 1007,5 hPa 0,5 l/m 5,4 km/h (1 Bft) W-SW 247 12,4 C 14,9 C
31.05.2012 23:51 14,9 C 86 % 1007,5 hPa 0,0 l/m 6,5 km/h (2 Bft) W-SW 247 12,6 C 14,9 C
31.05.2012 23:56 14,9 C 86 % 1007,6 hPa 0,0 l/m 9,0 km/h (2 Bft) W-SW 247 12,6 C 14,9 C
_ Min-Zeit 06:16 12:01 23:36 - 00:21 - - 08:16 06:16
Minimum _ 12,1 C 53 % 1007,5 hPa - 0,0 km/h (0 Bft) - - 5,7 C 12,1 C
_ Max-Zeit 14:01 22:26 01:36 20:31 13:21 - - 22:26 14:01
Maximum _ 19,2 C 86 % 1018,8 hPa 2,6 l/m 13,0 km/h
W-SW (3 Bft)
- - 12,8 C 19,2 C
Durchschnitt _ 15,3 C 67 % 1015,6 hPa #16,1 l/m 3,4 km/h (1 Bft) W-SW - 9,1 C 15,3 C
(c) by David Heller